Esl America — 5BPP4 — position and weather

sailwx.info

Track history (hours):
 
Tides and Currents Weather Stations Pressure Air Temp Water Temp Dewpoint Dewpoint Depression Visibility Wind Speed Wind Dir Waves Ship Positions

Esl America

Last reported at 2018-Feb-20 03:24 UTC. Time now 2018-Feb-20 17:52 UTC.
Position N 59°37' E 023°14'.

Length 143 m; draft 9.2 m.

Type: Cargo ship. MMSI: 212558000.

Date/timePositionNaut miles runAvg speedWind from/ knotsBaromVisibWave heightAir tempDewpointWater temp
2018-Feb-20 03:24N 59°37' E 023°14'513.7
2018-Feb-20 03:01N 59°39' E 023°24'713.4
2018-Feb-20 02:30N 59°41' E 023°37'713.5
2018-Feb-20 02:00N 59°43' E 023°50'1513.5
2018-Feb-20 00:55N 59°47' E 024°18'613.8
2018-Feb-20 00:28N 59°48' E 024°30'612.6
2018-Feb-19 23:59N 59°49' E 024°42'713.8
2018-Feb-19 23:30N 59°50' E 024°55'4113.3
2018-Feb-19 20:26N 59°59' E 026°14'510.5
2018-Feb-19 20:00N 60°00' E 026°23'612.5
2018-Feb-19 19:30N 60°01' E 026°35'612.3
2018-Feb-19 19:00N 60°01' E 026°48'612.1
2018-Feb-19 18:30N 59°59' E 026°59'510.9
2018-Feb-19 18:00N 60°01' E 027°09'510.8
2018-Feb-19 17:30N 60°04' E 027°19'510.4
2018-Feb-19 17:00N 60°06' E 027°28'611.8
2018-Feb-19 16:30N 60°10' E 027°38'611.9
2018-Feb-19 16:00N 60°11' E 027°50'510.1
2018-Feb-19 15:30N 60°10' E 027°60'5 9.9
2018-Feb-19 15:01N 60°09' E 028°10'5 9.9
2018-Feb-19 14:30N 60°07' E 028°19'4 8.7
2018-Feb-19 14:00N 60°04' E 028°26'5 8.8
2018-Feb-19 13:29N 60°03' E 028°35'3710.8
2018-Feb-19 10:05N 59°58' E 029°47'210.9
2018-Feb-19 09:52N 59°57' E 029°52'410.3
2018-Feb-19 09:30N 59°56' E 029°59'5 9.8
2018-Feb-19 09:00N 59°54' E 030°08'3 4.6
2018-Feb-19 08:22N 59°54' E 030°14'0 0.1
2018-Feb-19 07:58N 59°54' E 030°14'0 0.0
2018-Feb-19 07:22N 59°54' E 030°14'0 0.0
2018-Feb-19 06:58N 59°54' E 030°14'0 0.0
2018-Feb-19 06:28N 59°54' E 030°14'0 0.0
2018-Feb-19 05:58N 59°54' E 030°14'0 0.0
2018-Feb-19 05:28N 59°54' E 030°14'0 0.0
2018-Feb-19 04:40N 59°54' E 030°14'0 0.0
2018-Feb-19 04:25N 59°54' E 030°14'0 0.0
2018-Feb-19 03:52N 59°54' E 030°14'0 0.0
2018-Feb-19 02:28N 59°54' E 030°14'0 0.0
2018-Feb-19 01:15N 59°54' E 030°14'0 0.0
2018-Feb-19 00:57N 59°54' E 030°14'0 0.0
2018-Feb-19 00:30N 59°54' E 030°14'0 0.0
2018-Feb-18 23:57N 59°54' E 030°14'0 0.0
2018-Feb-18 23:27N 59°54' E 030°14'0 0.0
2018-Feb-18 23:00N 59°54' E 030°14'0 0.0
2018-Feb-18 22:30N 59°54' E 030°14'0 0.0
2018-Feb-18 22:00N 59°54' E 030°14'0 0.0
2018-Feb-18 21:30N 59°54' E 030°14'0 0.0
2018-Feb-18 21:00N 59°54' E 030°14'0 0.0
2018-Feb-18 20:06N 59°54' E 030°14'0 0.0
2018-Feb-18 19:57N 59°54' E 030°14'0 0.0
2018-Feb-18 19:27N 59°54' E 030°14'0 0.0
2018-Feb-18 18:48N 59°54' E 030°14'0 0.0
2018-Feb-18 18:27N 59°54' E 030°14'0 0.0
2018-Feb-18 17:54N 59°54' E 030°14'0 0.0
2018-Feb-18 16:38N 59°54' E 030°14'0 0.0
2018-Feb-18 16:29N 59°54' E 030°14'0 0.0
2018-Feb-18 15:59N 59°54' E 030°14'0 0.0
2018-Feb-18 15:26N 59°54' E 030°14'0 0.0
2018-Feb-18 14:59N 59°54' E 030°14'0 0.6
2018-Feb-18 14:30N 59°53' E 030°13'3 6.2
2018-Feb-18 14:00N 59°54' E 030°07'510.0
2018-Feb-18 13:30N 59°56' E 029°58'36 4.2
2018-Feb-18 04:50N 60°02' E 028°47'310.7
2018-Feb-18 04:30N 60°02' E 028°40'5 9.4
2018-Feb-18 03:59N 60°03' E 028°30'4 8.9
2018-Feb-18 03:30N 60°04' E 028°22'510.2
2018-Feb-18 03:00N 60°07' E 028°14'510.5
2018-Feb-18 02:31N 60°08' E 028°04'5 9.2
2018-Feb-18 02:00N 60°10' E 027°55'5 9.3
2018-Feb-18 01:30N 60°10' E 027°45'510.6
2018-Feb-18 01:00N 60°07' E 027°36'5 9.9
2018-Feb-18 00:30N 60°05' E 027°28'510.7
2018-Feb-18 00:00N 60°02' E 027°18'611.5
2018-Feb-17 23:30N 59°59' E 027°08'611.3
2018-Feb-17 23:00N 59°58' E 026°57'713.1
2018-Feb-17 22:27N 59°59' E 026°43'511.8
2018-Feb-17 21:59N 59°59' E 026°32'510.9
2018-Feb-17 21:31N 60°01' E 026°23'611.7
2018-Feb-17 21:00N 60°07' E 026°21'5 9.3
2018-Feb-17 20:30N 60°12' E 026°23'5 9.6
2018-Feb-17 20:01N 60°16' E 026°28'510.7
2018-Feb-17 19:30N 60°19' E 026°36'510.7
2018-Feb-17 19:00N 60°23' E 026°44'510.6
2018-Feb-17 18:31N 60°25' E 026°54'1 1.9
2018-Feb-17 17:58N 60°26' E 026°55'0 0.0
2018-Feb-17 17:28N 60°26' E 026°55'0 0.0
2018-Feb-17 16:58N 60°26' E 026°55'0 0.0
2018-Feb-17 16:28N 60°26' E 026°55'0 0.0
2018-Feb-17 15:58N 60°26' E 026°55'0 0.0
2018-Feb-17 15:28N 60°26' E 026°55'0 0.0
2018-Feb-17 14:58N 60°26' E 026°55'0 0.0
2018-Feb-17 14:28N 60°26' E 026°55'0 0.0
2018-Feb-17 13:58N 60°26' E 026°55'0 0.0
2018-Feb-17 13:28N 60°26' E 026°55'0 0.0
2018-Feb-17 12:58N 60°26' E 026°55'0 0.0
2018-Feb-17 12:29N 60°26' E 026°55'0 0.0
2018-Feb-17 11:59N 60°26' E 026°55'0 0.0
2018-Feb-17 11:29N 60°26' E 026°55'0 0.0
2018-Feb-17 10:59N 60°26' E 026°55'0 0.0
2018-Feb-17 10:29N 60°26' E 026°55'0 0.0
2018-Feb-17 09:59N 60°26' E 026°55'0 0.0
2018-Feb-17 09:29N 60°26' E 026°55'0 0.0
2018-Feb-17 08:59N 60°26' E 026°55'0 0.0
2018-Feb-17 08:29N 60°26' E 026°55'0 0.0
2018-Feb-17 07:59N 60°26' E 026°55'0 0.0
2018-Feb-17 07:29N 60°26' E 026°55'0 0.0
2018-Feb-17 06:59N 60°26' E 026°55'0 0.0
2018-Feb-17 06:29N 60°26' E 026°55'0 0.0
2018-Feb-17 05:59N 60°26' E 026°55'0 0.0
2018-Feb-17 05:29N 60°26' E 026°55'0 0.0
2018-Feb-17 04:59N 60°26' E 026°55'0 0.0
2018-Feb-17 04:29N 60°26' E 026°55'0 0.0
2018-Feb-17 03:59N 60°26' E 026°55'0 0.0
2018-Feb-17 03:29N 60°26' E 026°55'0 0.0
2018-Feb-17 02:59N 60°26' E 026°55'0 0.0
2018-Feb-17 02:29N 60°26' E 026°55'0 0.0
2018-Feb-17 01:59N 60°26' E 026°55'0 0.0
2018-Feb-17 01:29N 60°26' E 026°55'0 0.0
2018-Feb-17 00:59N 60°26' E 026°55'0 0.0
2018-Feb-17 00:29N 60°26' E 026°55'0 0.0
2018-Feb-16 23:59N 60°26' E 026°55'0 0.0
2018-Feb-16 23:29N 60°26' E 026°55'0 0.0
2018-Feb-16 22:59N 60°26' E 026°55'0 0.0
2018-Feb-16 22:29N 60°26' E 026°55'0 0.0
2018-Feb-16 22:00N 60°26' E 026°55'0 0.0
2018-Feb-16 21:30N 60°26' E 026°55'0 0.0
2018-Feb-16 20:58N 60°26' E 026°55'0 0.0
2018-Feb-16 20:29N 60°26' E 026°55'0 0.0
2018-Feb-16 19:59N 60°26' E 026°55'0 0.0
2018-Feb-16 19:30N 60°26' E 026°55'0 0.0
2018-Feb-16 19:00N 60°26' E 026°55'0 0.0
2018-Feb-16 18:30N 60°26' E 026°55'0 0.0
2018-Feb-16 18:00N 60°26' E 026°55'0 0.0
2018-Feb-16 17:30N 60°26' E 026°55'0 0.0
2018-Feb-16 17:00N 60°26' E 026°55'0 0.0
2018-Feb-16 16:30N 60°26' E 026°55'0 0.0
2018-Feb-16 16:00N 60°26' E 026°55'0 0.0
2018-Feb-16 15:29N 60°26' E 026°55'0 0.0
2018-Feb-16 14:58N 60°26' E 026°55'0 0.0
2018-Feb-16 14:28N 60°26' E 026°55'0 0.0
2018-Feb-16 13:59N 60°26' E 026°55'0 0.0
2018-Feb-16 13:29N 60°26' E 026°55'0 0.0
2018-Feb-16 12:59N 60°26' E 026°55'0 0.0
2018-Feb-16 12:29N 60°26' E 026°55'0 0.0
2018-Feb-16 11:59N 60°26' E 026°55'0 0.0
2018-Feb-16 11:29N 60°26' E 026°55'0 0.0
2018-Feb-16 10:59N 60°26' E 026°55'0 0.0
2018-Feb-16 10:29N 60°26' E 026°55'0 0.0
2018-Feb-16 09:59N 60°26' E 026°55'0 0.0
2018-Feb-16 09:29N 60°26' E 026°55'0 0.0
2018-Feb-16 08:59N 60°26' E 026°55'0 0.0
2018-Feb-16 08:30N 60°26' E 026°55'0 0.0
2018-Feb-16 07:59N 60°26' E 026°55'0 0.0
2018-Feb-16 07:30N 60°26' E 026°55'0 0.0
2018-Feb-16 06:59N 60°26' E 026°55'0 0.0
2018-Feb-16 06:29N 60°26' E 026°55'0 0.0
2018-Feb-16 06:00N 60°26' E 026°55'0 0.0
2018-Feb-16 05:29N 60°26' E 026°55'0 0.0
2018-Feb-16 04:53N 60°26' E 026°55'0 0.0
2018-Feb-16 04:29N 60°26' E 026°55'0 0.0
2018-Feb-16 03:59N 60°26' E 026°55'0 0.0
2018-Feb-16 03:30N 60°26' E 026°55'0 0.0
2018-Feb-16 03:00N 60°26' E 026°55'0 0.0
2018-Feb-16 02:30N 60°26' E 026°55'0 0.0
2018-Feb-16 02:00N 60°26' E 026°55'0 0.0
2018-Feb-16 01:30N 60°26' E 026°55'0 0.0
2018-Feb-16 01:00N 60°26' E 026°55'0 0.0
2018-Feb-16 00:29N 60°26' E 026°55'0 0.0
2018-Feb-15 23:59N 60°26' E 026°55'0 0.0
2018-Feb-15 23:29N 60°26' E 026°55'0 0.0
2018-Feb-15 22:59N 60°26' E 026°55'0 0.0
2018-Feb-15 22:28N 60°26' E 026°55'0 0.0
2018-Feb-15 22:00N 60°26' E 026°55'0 0.0
2018-Feb-15 21:29N 60°26' E 026°55'0 0.0
2018-Feb-15 21:00N 60°26' E 026°55'0 0.0
2018-Feb-15 20:28N 60°26' E 026°55'0 0.0
2018-Feb-15 19:58N 60°26' E 026°55'0 0.0
2018-Feb-15 19:28N 60°26' E 026°55'0 0.0
2018-Feb-15 18:59N 60°26' E 026°55'0 0.0
2018-Feb-15 18:29N 60°26' E 026°55'0 0.0
2018-Feb-15 17:59N 60°26' E 026°55'0 0.0
2018-Feb-15 17:29N 60°26' E 026°55'0 0.0
2018-Feb-15 16:56N 60°26' E 026°55'0 0.0
2018-Feb-15 16:29N 60°26' E 026°55'0 0.0
2018-Feb-15 15:59N 60°26' E 026°55'0 0.0
2018-Feb-15 15:29N 60°26' E 026°55'0 0.0
2018-Feb-15 15:00N 60°26' E 026°55'0 0.0
2018-Feb-15 14:29N 60°26' E 026°55'0 0.0
2018-Feb-15 13:55N 60°26' E 026°55'0 0.0
2018-Feb-15 13:30N 60°26' E 026°55'0 0.0
2018-Feb-15 12:59N 60°26' E 026°55'0 0.0
2018-Feb-15 12:29N 60°26' E 026°55'0 0.0
2018-Feb-15 11:56N 60°26' E 026°55'0 0.0
2018-Feb-15 11:30N 60°26' E 026°55'0 0.0
2018-Feb-15 10:58N 60°26' E 026°55'0 0.0
2018-Feb-15 10:30N 60°26' E 026°55'0 0.9
2018-Feb-15 10:00N 60°25' E 026°55'5 9.6
2018-Feb-15 09:30N 60°23' E 026°47'510.7
2018-Feb-15 09:00N 60°20' E 026°37'510.9
2018-Feb-15 08:30N 60°16' E 026°29'4 7.2
2018-Feb-15 08:00N 60°14' E 026°25'3 5.0
2018-Feb-15 07:30N 60°11' E 026°25'2 4.9
2018-Feb-15 07:00N 60°09' E 026°28'0 0.1
2018-Feb-15 06:30N 60°09' E 026°28'0 0.0
2018-Feb-15 06:00N 60°09' E 026°28'0 0.0
2018-Feb-15 05:30N 60°09' E 026°28'0 0.0
2018-Feb-15 05:00N 60°09' E 026°28'0 0.0
2018-Feb-15 04:30N 60°09' E 026°28'0 0.0
2018-Feb-15 04:00N 60°09' E 026°28'0 0.0
2018-Feb-15 03:30N 60°09' E 026°28'0 0.0
2018-Feb-15 03:00N 60°09' E 026°28'0 0.0
2018-Feb-15 02:30N 60°09' E 026°28'0 0.0
2018-Feb-15 02:00N 60°09' E 026°28'0 0.0
2018-Feb-15 01:30N 60°09' E 026°28'0 0.0
2018-Feb-15 00:57N 60°09' E 026°28'0 0.0
2018-Feb-15 00:30N 60°09' E 026°28'0 0.0
2018-Feb-15 00:00N 60°09' E 026°28'0 0.0
2018-Feb-14 23:30N 60°09' E 026°28'0 0.0
2018-Feb-14 23:00N 60°09' E 026°28'0 0.0
2018-Feb-14 22:30N 60°09' E 026°28'0 0.0
2018-Feb-14 21:58N 60°09' E 026°28'0 0.0
2018-Feb-14 21:24N 60°09' E 026°28'0 0.0
2018-Feb-14 20:57N 60°09' E 026°28'0 0.0
2018-Feb-14 20:30N 60°09' E 026°28'0 0.0
2018-Feb-14 20:00N 60°09' E 026°28'0 0.0
2018-Feb-14 19:30N 60°09' E 026°28'0 0.0
2018-Feb-14 19:00N 60°09' E 026°28'0 0.0
2018-Feb-14 18:30N 60°09' E 026°28'0 0.0
2018-Feb-14 18:00N 60°09' E 026°28'0 0.0
2018-Feb-14 17:30N 60°09' E 026°28'0 0.0
2018-Feb-14 17:00N 60°09' E 026°28'0 0.0
2018-Feb-14 16:30N 60°09' E 026°28'0 0.0
2018-Feb-14 16:00N 60°09' E 026°28'0 0.0
2018-Feb-14 15:30N 60°09' E 026°28'0 0.0
2018-Feb-14 14:57N 60°09' E 026°28'0 0.0
2018-Feb-14 14:30N 60°09' E 026°28'0 0.0
2018-Feb-14 14:00N 60°09' E 026°28'0 0.0
2018-Feb-14 13:30N 60°09' E 026°28'0 0.0
2018-Feb-14 12:54N 60°09' E 026°28'0 0.0
2018-Feb-14 12:30N 60°09' E 026°28'0 0.0
2018-Feb-14 11:57N 60°09' E 026°28'0 0.0
2018-Feb-14 11:30N 60°09' E 026°28'0 0.0
2018-Feb-14 10:54N 60°09' E 026°28'0 0.0
2018-Feb-14 10:30N 60°09' E 026°28'0 0.0
2018-Feb-14 10:00N 60°09' E 026°28'0 0.0
2018-Feb-14 09:27N 60°09' E 026°28'0 0.0
2018-Feb-14 08:57N 60°09' E 026°28'0 0.0
2018-Feb-14 08:30N 60°09' E 026°28'0 0.0
2018-Feb-14 07:57N 60°09' E 026°28'0 0.0
2018-Feb-14 07:30N 60°09' E 026°28'0 0.0
2018-Feb-14 07:00N 60°09' E 026°28'0 0.0
2018-Feb-14 06:30N 60°09' E 026°28'0 0.0
2018-Feb-14 06:00N 60°09' E 026°28'0 0.0
2018-Feb-14 05:27N 60°09' E 026°28'0 0.0
2018-Feb-14 05:00N 60°09' E 026°28'0 0.0
2018-Feb-14 04:30N 60°09' E 026°28'0 0.0
2018-Feb-14 04:00N 60°09' E 026°28'0 0.0
2018-Feb-14 03:30N 60°09' E 026°28'0 0.0
2018-Feb-14 03:00N 60°09' E 026°28'0 0.0
2018-Feb-14 02:30N 60°09' E 026°28'0 0.0
2018-Feb-14 02:00N 60°09' E 026°28'0 0.0
2018-Feb-14 01:30N 60°09' E 026°28'0 0.0
2018-Feb-14 01:00N 60°09' E 026°28'0 0.0
2018-Feb-14 00:30N 60°09' E 026°28'0 0.0
2018-Feb-14 00:00N 60°09' E 026°28'0 0.0
2018-Feb-13 23:30N 60°09' E 026°28'0 0.0
2018-Feb-13 23:00N 60°09' E 026°28'0 0.0
2018-Feb-13 22:30N 60°09' E 026°28'0 0.0
2018-Feb-13 22:00N 60°09' E 026°28'0 0.0
2018-Feb-13 21:30N 60°09' E 026°28'0 0.0
2018-Feb-13 20:59N 60°09' E 026°28'0 0.0
2018-Feb-13 20:28N 60°09' E 026°28'0 0.0
2018-Feb-13 19:58N 60°09' E 026°28'0 0.0
2018-Feb-13 19:29N 60°09' E 026°28'0 0.0
2018-Feb-13 18:59N 60°09' E 026°28'0 0.0
2018-Feb-13 18:25N 60°09' E 026°28'0 0.0
2018-Feb-13 18:00N 60°09' E 026°28'0 0.0
2018-Feb-13 17:30N 60°09' E 026°28'0 0.0
2018-Feb-13 16:58N 60°09' E 026°28'0 0.0
2018-Feb-13 16:28N 60°09' E 026°28'0 0.0
2018-Feb-13 16:00N 60°09' E 026°28'0 0.0
2018-Feb-13 15:31N 60°09' E 026°28'0 0.0
2018-Feb-13 15:00N 60°09' E 026°28'0 0.0
2018-Feb-13 14:30N 60°09' E 026°28'0 0.0
2018-Feb-13 14:00N 60°09' E 026°28'0 0.0
2018-Feb-13 13:30N 60°09' E 026°28'0 0.0
2018-Feb-13 13:00N 60°09' E 026°28'0 0.0
2018-Feb-13 12:30N 60°09' E 026°28'0 0.0
2018-Feb-13 12:00N 60°09' E 026°28'0 0.0
2018-Feb-13 11:29N 60°09' E 026°28'0 0.0
2018-Feb-13 11:00N 60°09' E 026°28'2 2.9
2018-Feb-13 10:29N 60°09' E 026°25'4 7.8
2018-Feb-13 10:00N 60°07' E 026°19'4512.6
2018-Feb-13 06:29N 59°39' E 025°10'612.0
2018-Feb-13 06:00N 59°34' E 025°05'510.9
2018-Feb-13 05:30N 59°30' E 024°58'0 0.4
2018-Feb-13 05:00N 59°29' E 024°58'0 0.0
2018-Feb-13 04:30N 59°29' E 024°58'0 0.0
2018-Feb-13 03:59N 59°29' E 024°58'0 0.0
2018-Feb-13 03:30N 59°29' E 024°58'0 0.0
2018-Feb-13 03:00N 59°29' E 024°58'0 0.0
2018-Feb-13 02:30N 59°29' E 024°58'0 0.0
2018-Feb-13 02:00N 59°29' E 024°58'0 0.0
2018-Feb-13 01:30N 59°29' E 024°58'0 0.0
2018-Feb-13 01:00N 59°29' E 024°58'0 0.0
2018-Feb-13 00:30N 59°29' E 024°58'0 0.0
2018-Feb-13 00:00N 59°29' E 024°58'0 0.0
2018-Feb-12 23:30N 59°29' E 024°58'0 0.0
2018-Feb-12 23:00N 59°29' E 024°58'0 0.0
2018-Feb-12 22:30N 59°29' E 024°58'0 0.0
2018-Feb-12 21:58N 59°29' E 024°58'0 0.0
2018-Feb-12 21:29N 59°29' E 024°58'0 0.0
2018-Feb-12 20:58N 59°29' E 024°58'0 0.0
2018-Feb-12 20:28N 59°29' E 024°58'0 0.0
2018-Feb-12 19:58N 59°29' E 024°58'0 0.0
2018-Feb-12 19:29N 59°29' E 024°58'0 0.0
2018-Feb-12 18:59N 59°29' E 024°58'0 0.0
2018-Feb-12 18:29N 59°29' E 024°58'0 0.0
2018-Feb-12 17:59N 59°29' E 024°58'0 0.0
2018-Feb-12 17:29N 59°29' E 024°58'0 0.0
2018-Feb-12 16:59N 59°29' E 024°58'0 0.0
2018-Feb-12 16:29N 59°29' E 024°58'0 0.0
2018-Feb-12 15:59N 59°29' E 024°58'0 0.0
2018-Feb-12 15:28N 59°29' E 024°58'0 0.0
2018-Feb-12 14:58N 59°29' E 024°58'0 0.0
2018-Feb-12 14:28N 59°29' E 024°58'0 0.0
2018-Feb-12 13:58N 59°29' E 024°58'0 0.0
2018-Feb-12 13:28N 59°29' E 024°58'0 0.0
2018-Feb-12 12:58N 59°29' E 024°58'0 0.0
2018-Feb-12 12:28N 59°29' E 024°58'0 0.0
2018-Feb-12 11:58N 59°29' E 024°58'0 0.0
2018-Feb-12 11:28N 59°29' E 024°58'0 0.0
2018-Feb-12 10:58N 59°29' E 024°58'0 0.0
2018-Feb-12 10:28N 59°29' E 024°58'0 0.0
2018-Feb-12 09:58N 59°29' E 024°58'0 0.0
2018-Feb-12 09:25N 59°29' E 024°58'0 0.0
2018-Feb-12 08:58N 59°29' E 024°58'0 0.0
2018-Feb-12 08:28N 59°29' E 024°58'0 0.0
2018-Feb-12 07:58N 59°29' E 024°58'0 0.0
2018-Feb-12 07:28N 59°29' E 024°58'0 0.0
2018-Feb-12 06:58N 59°29' E 024°58'0 0.0
2018-Feb-12 06:28N 59°29' E 024°58'0 0.0
2018-Feb-12 05:58N 59°29' E 024°58'0 0.0
2018-Feb-12 05:28N 59°29' E 024°58'0 0.0
2018-Feb-12 04:58N 59°29' E 024°58'0 0.0
2018-Feb-12 04:28N 59°29' E 024°58'0 0.0
2018-Feb-12 03:58N 59°29' E 024°58'0 0.0
2018-Feb-12 03:28N 59°29' E 024°58'0 0.0
2018-Feb-12 02:58N 59°29' E 024°58'0 0.0
2018-Feb-12 02:28N 59°29' E 024°58'0 0.0
2018-Feb-12 01:58N 59°29' E 024°58'0 0.0
2018-Feb-12 01:28N 59°29' E 024°58'0 0.0
2018-Feb-12 00:58N 59°29' E 024°58'0 0.0
2018-Feb-12 00:30N 59°29' E 024°58'0 0.0
2018-Feb-12 00:00N 59°29' E 024°58'0 0.0
2018-Feb-11 23:30N 59°29' E 024°58'0 0.0
2018-Feb-11 23:00N 59°29' E 024°58'0 0.0
2018-Feb-11 22:30N 59°29' E 024°58'0 0.0
2018-Feb-11 22:00N 59°29' E 024°58'0 0.0
2018-Feb-11 21:30N 59°29' E 024°58'0 0.0
2018-Feb-11 21:00N 59°29' E 024°58'0 0.0
2018-Feb-11 20:30N 59°29' E 024°58'0 0.0
2018-Feb-11 20:00N 59°29' E 024°58'0 0.0
2018-Feb-11 19:30N 59°29' E 024°58'0 0.0
2018-Feb-11 19:00N 59°29' E 024°58'0 0.0
2018-Feb-11 18:30N 59°29' E 024°58'0 0.0
2018-Feb-11 18:00N 59°29' E 024°58'0 0.0
2018-Feb-11 17:30N 59°29' E 024°58'0 0.0
2018-Feb-11 17:00N 59°29' E 024°58'0 0.0
2018-Feb-11 16:30N 59°29' E 024°58'0 0.0
2018-Feb-11 15:57N 59°29' E 024°58'0 0.0
2018-Feb-11 15:29N 59°29' E 024°58'0 0.0
2018-Feb-11 14:59N 59°29' E 024°58'0 0.0
2018-Feb-11 14:29N 59°29' E 024°58'0 0.0
2018-Feb-11 13:59N 59°29' E 024°58'0 0.0
2018-Feb-11 13:29N 59°29' E 024°58'0 0.0
2018-Feb-11 12:59N 59°29' E 024°58'0 0.0
2018-Feb-11 12:29N 59°29' E 024°58'0 0.0
2018-Feb-11 11:59N 59°29' E 024°58'0 0.0
2018-Feb-11 11:29N 59°29' E 024°58'0 0.0
2018-Feb-11 10:59N 59°29' E 024°58'0 0.0
2018-Feb-11 10:29N 59°29' E 024°58'0 0.0
2018-Feb-11 09:59N 59°29' E 024°58'0 0.0
2018-Feb-11 09:26N 59°29' E 024°58'0 0.0
2018-Feb-11 08:59N 59°29' E 024°58'0 0.0
2018-Feb-11 08:27N 59°29' E 024°58'0 0.0
2018-Feb-11 07:56N 59°29' E 024°58'0 0.0
2018-Feb-11 07:29N 59°29' E 024°58'0 0.0
2018-Feb-11 06:59N 59°29' E 024°58'0 0.0
2018-Feb-11 06:29N 59°29' E 024°58'0 0.0
2018-Feb-11 05:59N 59°29' E 024°58'0 0.0
2018-Feb-11 05:30N 59°29' E 024°58'0 0.0
2018-Feb-11 04:59N 59°29' E 024°58'0 0.0
2018-Feb-11 04:29N 59°29' E 024°58'0 0.0
2018-Feb-11 03:59N 59°29' E 024°58'0 0.0
2018-Feb-11 03:29N 59°29' E 024°58'0 0.0
2018-Feb-11 02:59N 59°29' E 024°58'0 0.0
2018-Feb-11 02:29N 59°29' E 024°58'0 0.0
2018-Feb-11 01:59N 59°29' E 024°58'0 0.0
2018-Feb-11 01:29N 59°29' E 024°58'0 0.0
2018-Feb-11 00:56N 59°29' E 024°58'0 0.0
2018-Feb-11 00:29N 59°29' E 024°58'0 0.0
2018-Feb-10 23:59N 59°29' E 024°58'0 0.0
2018-Feb-10 23:29N 59°29' E 024°58'0 0.0
2018-Feb-10 22:59N 59°29' E 024°58'0 0.0
2018-Feb-10 22:29N 59°29' E 024°58'0 0.0
2018-Feb-10 21:59N 59°29' E 024°58'0 0.0
2018-Feb-10 21:29N 59°29' E 024°58'0 0.0
2018-Feb-10 20:59N 59°29' E 024°58'0 0.0
2018-Feb-10 20:29N 59°29' E 024°58'0 0.0
2018-Feb-10 19:59N 59°29' E 024°58'0 0.0
2018-Feb-10 19:29N 59°29' E 024°58'0 0.0
2018-Feb-10 18:59N 59°29' E 024°58'0 0.0
2018-Feb-10 18:29N 59°29' E 024°58'0 0.0
2018-Feb-10 17:59N 59°29' E 024°58'0 0.0
2018-Feb-10 17:29N 59°29' E 024°58'0 0.0
2018-Feb-10 16:59N 59°29' E 024°58'0 0.0
2018-Feb-10 16:26N 59°29' E 024°58'0 0.0
2018-Feb-10 15:58N 59°29' E 024°58'0 0.0
2018-Feb-10 15:28N 59°29' E 024°58'0 0.0
2018-Feb-10 14:58N 59°29' E 024°58'0 0.0
2018-Feb-10 14:28N 59°29' E 024°58'0 0.0
2018-Feb-10 13:58N 59°29' E 024°58'0 0.0
2018-Feb-10 13:28N 59°29' E 024°58'0 0.0
2018-Feb-10 13:00N 59°29' E 024°58'0 0.0
2018-Feb-10 12:28N 59°29' E 024°58'0 0.0
2018-Feb-10 11:58N 59°29' E 024°58'0 0.0
2018-Feb-10 11:28N 59°29' E 024°58'0 0.0
2018-Feb-10 10:58N 59°29' E 024°58'0 0.0
2018-Feb-10 10:28N 59°29' E 024°58'0 0.0
2018-Feb-10 09:59N 59°29' E 024°58'0 0.0
2018-Feb-10 09:28N 59°29' E 024°58'0 0.0
2018-Feb-10 08:58N 59°29' E 024°58'0 0.0
2018-Feb-10 08:28N 59°29' E 024°58'0 0.0
2018-Feb-10 07:58N 59°29' E 024°58'0 0.0
2018-Feb-10 07:28N 59°29' E 024°58'0 0.0
2018-Feb-10 06:58N 59°29' E 024°58'0 0.0
2018-Feb-10 06:28N 59°29' E 024°58'0 0.0
2018-Feb-10 05:59N 59°29' E 024°58'0 0.0
2018-Feb-10 05:29N 59°29' E 024°58'0 0.0
2018-Feb-10 04:58N 59°29' E 024°58'0 0.0
2018-Feb-10 04:29N 59°29' E 024°58'0 0.0
2018-Feb-10 03:59N 59°29' E 024°58'0 0.0
2018-Feb-10 03:28N 59°29' E 024°58'  
Track history (hours):
 
Tides and Currents Weather Stations Pressure Air Temp Water Temp Dewpoint Dewpoint Depression Visibility Wind Speed Wind Dir Waves Ship Positions

Esl America

Last reported at 2018-Feb-20 03:24 UTC. Time now 2018-Feb-20 17:52 UTC.
Position N 59°37' E 023°14'.

Length 143 m; draft 9.2 m.

Type: Cargo ship. MMSI: 212558000.

Date/timePositionNaut miles runAvg speedWind from/ knotsBaromVisibWave heightAir tempDewpointWater temp
2018-Feb-20 03:24N 59°37' E 023°14'513.7
2018-Feb-20 03:01N 59°39' E 023°24'713.4
2018-Feb-20 02:30N 59°41' E 023°37'713.5
2018-Feb-20 02:00N 59°43' E 023°50'1513.5
2018-Feb-20 00:55N 59°47' E 024°18'613.8
2018-Feb-20 00:28N 59°48' E 024°30'612.6
2018-Feb-19 23:59N 59°49' E 024°42'713.8
2018-Feb-19 23:30N 59°50' E 024°55'4113.3
2018-Feb-19 20:26N 59°59' E 026°14'510.5
2018-Feb-19 20:00N 60°00' E 026°23'612.5
2018-Feb-19 19:30N 60°01' E 026°35'612.3
2018-Feb-19 19:00N 60°01' E 026°48'612.1
2018-Feb-19 18:30N 59°59' E 026°59'510.9
2018-Feb-19 18:00N 60°01' E 027°09'510.8
2018-Feb-19 17:30N 60°04' E 027°19'510.4
2018-Feb-19 17:00N 60°06' E 027°28'611.8
2018-Feb-19 16:30N 60°10' E 027°38'611.9
2018-Feb-19 16:00N 60°11' E 027°50'510.1
2018-Feb-19 15:30N 60°10' E 027°60'5 9.9
2018-Feb-19 15:01N 60°09' E 028°10'5 9.9
2018-Feb-19 14:30N 60°07' E 028°19'4 8.7
2018-Feb-19 14:00N 60°04' E 028°26'5 8.8
2018-Feb-19 13:29N 60°03' E 028°35'3710.8
2018-Feb-19 10:05N 59°58' E 029°47'210.9
2018-Feb-19 09:52N 59°57' E 029°52'410.3
2018-Feb-19 09:30N 59°56' E 029°59'5 9.8
2018-Feb-19 09:00N 59°54' E 030°08'3 4.6
2018-Feb-19 08:22N 59°54' E 030°14'0 0.1
2018-Feb-19 07:58N 59°54' E 030°14'0 0.0
2018-Feb-19 07:22N 59°54' E 030°14'0 0.0
2018-Feb-19 06:58N 59°54' E 030°14'0 0.0
2018-Feb-19 06:28N 59°54' E 030°14'0 0.0
2018-Feb-19 05:58N 59°54' E 030°14'0 0.0
2018-Feb-19 05:28N 59°54' E 030°14'0 0.0
2018-Feb-19 04:40N 59°54' E 030°14'0 0.0
2018-Feb-19 04:25N 59°54' E 030°14'0 0.0
2018-Feb-19 03:52N 59°54' E 030°14'0 0.0
2018-Feb-19 02:28N 59°54' E 030°14'0 0.0
2018-Feb-19 01:15N 59°54' E 030°14'0 0.0
2018-Feb-19 00:57N 59°54' E 030°14'0 0.0
2018-Feb-19 00:30N 59°54' E 030°14'0 0.0
2018-Feb-18 23:57N 59°54' E 030°14'0 0.0
2018-Feb-18 23:27N 59°54' E 030°14'0 0.0
2018-Feb-18 23:00N 59°54' E 030°14'0 0.0
2018-Feb-18 22:30N 59°54' E 030°14'0 0.0
2018-Feb-18 22:00N 59°54' E 030°14'0 0.0
2018-Feb-18 21:30N 59°54' E 030°14'0 0.0
2018-Feb-18 21:00N 59°54' E 030°14'0 0.0
2018-Feb-18 20:06N 59°54' E 030°14'0 0.0
2018-Feb-18 19:57N 59°54' E 030°14'0 0.0
2018-Feb-18 19:27N 59°54' E 030°14'0 0.0
2018-Feb-18 18:48N 59°54' E 030°14'0 0.0
2018-Feb-18 18:27N 59°54' E 030°14'0 0.0
2018-Feb-18 17:54N 59°54' E 030°14'0 0.0
2018-Feb-18 16:38N 59°54' E 030°14'0 0.0
2018-Feb-18 16:29N 59°54' E 030°14'0 0.0
2018-Feb-18 15:59N 59°54' E 030°14'0 0.0
2018-Feb-18 15:26N 59°54' E 030°14'0 0.0
2018-Feb-18 14:59N 59°54' E 030°14'0 0.6
2018-Feb-18 14:30N 59°53' E 030°13'3 6.2
2018-Feb-18 14:00N 59°54' E 030°07'510.0
2018-Feb-18 13:30N 59°56' E 029°58'36 4.2
2018-Feb-18 04:50N 60°02' E 028°47'310.7
2018-Feb-18 04:30N 60°02' E 028°40'5 9.4
2018-Feb-18 03:59N 60°03' E 028°30'4 8.9
2018-Feb-18 03:30N 60°04' E 028°22'510.2
2018-Feb-18 03:00N 60°07' E 028°14'510.5
2018-Feb-18 02:31N 60°08' E 028°04'5 9.2
2018-Feb-18 02:00N 60°10' E 027°55'5 9.3
2018-Feb-18 01:30N 60°10' E 027°45'510.6
2018-Feb-18 01:00N 60°07' E 027°36'5 9.9
2018-Feb-18 00:30N 60°05' E 027°28'510.7
2018-Feb-18 00:00N 60°02' E 027°18'611.5
2018-Feb-17 23:30N 59°59' E 027°08'611.3
2018-Feb-17 23:00N 59°58' E 026°57'713.1
2018-Feb-17 22:27N 59°59' E 026°43'511.8
2018-Feb-17 21:59N 59°59' E 026°32'510.9
2018-Feb-17 21:31N 60°01' E 026°23'611.7
2018-Feb-17 21:00N 60°07' E 026°21'5 9.3
2018-Feb-17 20:30N 60°12' E 026°23'5 9.6
2018-Feb-17 20:01N 60°16' E 026°28'510.7
2018-Feb-17 19:30N 60°19' E 026°36'510.7
2018-Feb-17 19:00N 60°23' E 026°44'510.6
2018-Feb-17 18:31N 60°25' E 026°54'1 1.9
2018-Feb-17 17:58N 60°26' E 026°55'0 0.0
2018-Feb-17 17:28N 60°26' E 026°55'0 0.0
2018-Feb-17 16:58N 60°26' E 026°55'0 0.0
2018-Feb-17 16:28N 60°26' E 026°55'0 0.0
2018-Feb-17 15:58N 60°26' E 026°55'0 0.0
2018-Feb-17 15:28N 60°26' E 026°55'0 0.0
2018-Feb-17 14:58N 60°26' E 026°55'0 0.0
2018-Feb-17 14:28N 60°26' E 026°55'0 0.0
2018-Feb-17 13:58N 60°26' E 026°55'0 0.0
2018-Feb-17 13:28N 60°26' E 026°55'0 0.0
2018-Feb-17 12:58N 60°26' E 026°55'0 0.0
2018-Feb-17 12:29N 60°26' E 026°55'0 0.0
2018-Feb-17 11:59N 60°26' E 026°55'0 0.0
2018-Feb-17 11:29N 60°26' E 026°55'0 0.0
2018-Feb-17 10:59N 60°26' E 026°55'0 0.0
2018-Feb-17 10:29N 60°26' E 026°55'0 0.0
2018-Feb-17 09:59N 60°26' E 026°55'0 0.0
2018-Feb-17 09:29N 60°26' E 026°55'0 0.0
2018-Feb-17 08:59N 60°26' E 026°55'0 0.0
2018-Feb-17 08:29N 60°26' E 026°55'0 0.0
2018-Feb-17 07:59N 60°26' E 026°55'0 0.0
2018-Feb-17 07:29N 60°26' E 026°55'0 0.0
2018-Feb-17 06:59N 60°26' E 026°55'0 0.0
2018-Feb-17 06:29N 60°26' E 026°55'0 0.0
2018-Feb-17 05:59N 60°26' E 026°55'0 0.0
2018-Feb-17 05:29N 60°26' E 026°55'0 0.0
2018-Feb-17 04:59N 60°26' E 026°55'0 0.0
2018-Feb-17 04:29N 60°26' E 026°55'0 0.0
2018-Feb-17 03:59N 60°26' E 026°55'0 0.0
2018-Feb-17 03:29N 60°26' E 026°55'0 0.0
2018-Feb-17 02:59N 60°26' E 026°55'0 0.0
2018-Feb-17 02:29N 60°26' E 026°55'0 0.0
2018-Feb-17 01:59N 60°26' E 026°55'0 0.0
2018-Feb-17 01:29N 60°26' E 026°55'0 0.0
2018-Feb-17 00:59N 60°26' E 026°55'0 0.0
2018-Feb-17 00:29N 60°26' E 026°55'0 0.0
2018-Feb-16 23:59N 60°26' E 026°55'0 0.0
2018-Feb-16 23:29N 60°26' E 026°55'0 0.0
2018-Feb-16 22:59N 60°26' E 026°55'0 0.0
2018-Feb-16 22:29N 60°26' E 026°55'0 0.0
2018-Feb-16 22:00N 60°26' E 026°55'0 0.0
2018-Feb-16 21:30N 60°26' E 026°55'0 0.0
2018-Feb-16 20:58N 60°26' E 026°55'0 0.0
2018-Feb-16 20:29N 60°26' E 026°55'0 0.0
2018-Feb-16 19:59N 60°26' E 026°55'0 0.0
2018-Feb-16 19:30N 60°26' E 026°55'0 0.0
2018-Feb-16 19:00N 60°26' E 026°55'0 0.0
2018-Feb-16 18:30N 60°26' E 026°55'0 0.0
2018-Feb-16 18:00N 60°26' E 026°55'0 0.0
2018-Feb-16 17:30N 60°26' E 026°55'0 0.0
2018-Feb-16 17:00N 60°26' E 026°55'0 0.0
2018-Feb-16 16:30N 60°26' E 026°55'0 0.0
2018-Feb-16 16:00N 60°26' E 026°55'0 0.0
2018-Feb-16 15:29N 60°26' E 026°55'0 0.0
2018-Feb-16 14:58N 60°26' E 026°55'0 0.0
2018-Feb-16 14:28N 60°26' E 026°55'0 0.0
2018-Feb-16 13:59N 60°26' E 026°55'0 0.0
2018-Feb-16 13:29N 60°26' E 026°55'0 0.0
2018-Feb-16 12:59N 60°26' E 026°55'0 0.0
2018-Feb-16 12:29N 60°26' E 026°55'0 0.0
2018-Feb-16 11:59N 60°26' E 026°55'0 0.0
2018-Feb-16 11:29N 60°26' E 026°55'0 0.0
2018-Feb-16 10:59N 60°26' E 026°55'0 0.0
2018-Feb-16 10:29N 60°26' E 026°55'0 0.0
2018-Feb-16 09:59N 60°26' E 026°55'0 0.0
2018-Feb-16 09:29N 60°26' E 026°55'0 0.0
2018-Feb-16 08:59N 60°26' E 026°55'0 0.0
2018-Feb-16 08:30N 60°26' E 026°55'0 0.0
2018-Feb-16 07:59N 60°26' E 026°55'0 0.0
2018-Feb-16 07:30N 60°26' E 026°55'0 0.0
2018-Feb-16 06:59N 60°26' E 026°55'0 0.0
2018-Feb-16 06:29N 60°26' E 026°55'0 0.0
2018-Feb-16 06:00N 60°26' E 026°55'0 0.0
2018-Feb-16 05:29N 60°26' E 026°55'0 0.0
2018-Feb-16 04:53N 60°26' E 026°55'0 0.0
2018-Feb-16 04:29N 60°26' E 026°55'0 0.0
2018-Feb-16 03:59N 60°26' E 026°55'0 0.0
2018-Feb-16 03:30N 60°26' E 026°55'0 0.0
2018-Feb-16 03:00N 60°26' E 026°55'0 0.0
2018-Feb-16 02:30N 60°26' E 026°55'0 0.0
2018-Feb-16 02:00N 60°26' E 026°55'0 0.0
2018-Feb-16 01:30N 60°26' E 026°55'0 0.0
2018-Feb-16 01:00N 60°26' E 026°55'0 0.0
2018-Feb-16 00:29N 60°26' E 026°55'0 0.0
2018-Feb-15 23:59N 60°26' E 026°55'0 0.0
2018-Feb-15 23:29N 60°26' E 026°55'0 0.0
2018-Feb-15 22:59N 60°26' E 026°55'0 0.0
2018-Feb-15 22:28N 60°26' E 026°55'0 0.0
2018-Feb-15 22:00N 60°26' E 026°55'0 0.0
2018-Feb-15 21:29N 60°26' E 026°55'0 0.0
2018-Feb-15 21:00N 60°26' E 026°55'0 0.0
2018-Feb-15 20:28N 60°26' E 026°55'0 0.0
2018-Feb-15 19:58N 60°26' E 026°55'0 0.0
2018-Feb-15 19:28N 60°26' E 026°55'0 0.0
2018-Feb-15 18:59N 60°26' E 026°55'0 0.0
2018-Feb-15 18:29N 60°26' E 026°55'0 0.0
2018-Feb-15 17:59N 60°26' E 026°55'0 0.0
2018-Feb-15 17:29N 60°26' E 026°55'0 0.0
2018-Feb-15 16:56N 60°26' E 026°55'0 0.0
2018-Feb-15 16:29N 60°26' E 026°55'0 0.0
2018-Feb-15 15:59N 60°26' E 026°55'0 0.0
2018-Feb-15 15:29N 60°26' E 026°55'0 0.0
2018-Feb-15 15:00N 60°26' E 026°55'0 0.0
2018-Feb-15 14:29N 60°26' E 026°55'0 0.0
2018-Feb-15 13:55N 60°26' E 026°55'0 0.0
2018-Feb-15 13:30N 60°26' E 026°55'0 0.0
2018-Feb-15 12:59N 60°26' E 026°55'0 0.0
2018-Feb-15 12:29N 60°26' E 026°55'0 0.0
2018-Feb-15 11:56N 60°26' E 026°55'0 0.0
2018-Feb-15 11:30N 60°26' E 026°55'0 0.0
2018-Feb-15 10:58N 60°26' E 026°55'0 0.0
2018-Feb-15 10:30N 60°26' E 026°55'0 0.9
2018-Feb-15 10:00N 60°25' E 026°55'5 9.6
2018-Feb-15 09:30N 60°23' E 026°47'510.7
2018-Feb-15 09:00N 60°20' E 026°37'510.9
2018-Feb-15 08:30N 60°16' E 026°29'4 7.2
2018-Feb-15 08:00N 60°14' E 026°25'3 5.0
2018-Feb-15 07:30N 60°11' E 026°25'2 4.9
2018-Feb-15 07:00N 60°09' E 026°28'0 0.1
2018-Feb-15 06:30N 60°09' E 026°28'0 0.0
2018-Feb-15 06:00N 60°09' E 026°28'0 0.0
2018-Feb-15 05:30N 60°09' E 026°28'0 0.0
2018-Feb-15 05:00N 60°09' E 026°28'0 0.0
2018-Feb-15 04:30N 60°09' E 026°28'0 0.0
2018-Feb-15 04:00N 60°09' E 026°28'0 0.0
2018-Feb-15 03:30N 60°09' E 026°28'0 0.0
2018-Feb-15 03:00N 60°09' E 026°28'0 0.0
2018-Feb-15 02:30N 60°09' E 026°28'0 0.0
2018-Feb-15 02:00N 60°09' E 026°28'0 0.0
2018-Feb-15 01:30N 60°09' E 026°28'0 0.0
2018-Feb-15 00:57N 60°09' E 026°28'0 0.0
2018-Feb-15 00:30N 60°09' E 026°28'0 0.0
2018-Feb-15 00:00N 60°09' E 026°28'0 0.0
2018-Feb-14 23:30N 60°09' E 026°28'0 0.0
2018-Feb-14 23:00N 60°09' E 026°28'0 0.0
2018-Feb-14 22:30N 60°09' E 026°28'0 0.0
2018-Feb-14 21:58N 60°09' E 026°28'0 0.0
2018-Feb-14 21:24N 60°09' E 026°28'0 0.0
2018-Feb-14 20:57N 60°09' E 026°28'0 0.0
2018-Feb-14 20:30N 60°09' E 026°28'0 0.0
2018-Feb-14 20:00N 60°09' E 026°28'0 0.0
2018-Feb-14 19:30N 60°09' E 026°28'0 0.0
2018-Feb-14 19:00N 60°09' E 026°28'0 0.0
2018-Feb-14 18:30N 60°09' E 026°28'0 0.0
2018-Feb-14 18:00N 60°09' E 026°28'0 0.0
2018-Feb-14 17:30N 60°09' E 026°28'0 0.0
2018-Feb-14 17:00N 60°09' E 026°28'0 0.0
2018-Feb-14 16:30N 60°09' E 026°28'0 0.0
2018-Feb-14 16:00N 60°09' E 026°28'0 0.0
2018-Feb-14 15:30N 60°09' E 026°28'0 0.0
2018-Feb-14 14:57N 60°09' E 026°28'0 0.0
2018-Feb-14 14:30N 60°09' E 026°28'0 0.0
2018-Feb-14 14:00N 60°09' E 026°28'0 0.0
2018-Feb-14 13:30N 60°09' E 026°28'0 0.0
2018-Feb-14 12:54N 60°09' E 026°28'0 0.0
2018-Feb-14 12:30N 60°09' E 026°28'0 0.0
2018-Feb-14 11:57N 60°09' E 026°28'0 0.0
2018-Feb-14 11:30N 60°09' E 026°28'0 0.0
2018-Feb-14 10:54N 60°09' E 026°28'0 0.0
2018-Feb-14 10:30N 60°09' E 026°28'0 0.0
2018-Feb-14 10:00N 60°09' E 026°28'0 0.0
2018-Feb-14 09:27N 60°09' E 026°28'0 0.0
2018-Feb-14 08:57N 60°09' E 026°28'0 0.0
2018-Feb-14 08:30N 60°09' E 026°28'0 0.0
2018-Feb-14 07:57N 60°09' E 026°28'0 0.0
2018-Feb-14 07:30N 60°09' E 026°28'0 0.0
2018-Feb-14 07:00N 60°09' E 026°28'0 0.0
2018-Feb-14 06:30N 60°09' E 026°28'0 0.0
2018-Feb-14 06:00N 60°09' E 026°28'0 0.0
2018-Feb-14 05:27N 60°09' E 026°28'0 0.0
2018-Feb-14 05:00N 60°09' E 026°28'0 0.0
2018-Feb-14 04:30N 60°09' E 026°28'0 0.0
2018-Feb-14 04:00N 60°09' E 026°28'0 0.0
2018-Feb-14 03:30N 60°09' E 026°28'0 0.0
2018-Feb-14 03:00N 60°09' E 026°28'0 0.0
2018-Feb-14 02:30N 60°09' E 026°28'0 0.0
2018-Feb-14 02:00N 60°09' E 026°28'0 0.0
2018-Feb-14 01:30N 60°09' E 026°28'0 0.0
2018-Feb-14 01:00N 60°09' E 026°28'0 0.0
2018-Feb-14 00:30N 60°09' E 026°28'0 0.0
2018-Feb-14 00:00N 60°09' E 026°28'0 0.0
2018-Feb-13 23:30N 60°09' E 026°28'0 0.0
2018-Feb-13 23:00N 60°09' E 026°28'0 0.0
2018-Feb-13 22:30N 60°09' E 026°28'0 0.0
2018-Feb-13 22:00N 60°09' E 026°28'0 0.0
2018-Feb-13 21:30N 60°09' E 026°28'0 0.0
2018-Feb-13 20:59N 60°09' E 026°28'0 0.0
2018-Feb-13 20:28N 60°09' E 026°28'0 0.0
2018-Feb-13 19:58N 60°09' E 026°28'0 0.0
2018-Feb-13 19:29N 60°09' E 026°28'0 0.0
2018-Feb-13 18:59N 60°09' E 026°28'0 0.0
2018-Feb-13 18:25N 60°09' E 026°28'0 0.0
2018-Feb-13 18:00N 60°09' E 026°28'0 0.0
2018-Feb-13 17:30N 60°09' E 026°28'0 0.0
2018-Feb-13 16:58N 60°09' E 026°28'0 0.0
2018-Feb-13 16:28N 60°09' E 026°28'0 0.0
2018-Feb-13 16:00N 60°09' E 026°28'0 0.0
2018-Feb-13 15:31N 60°09' E 026°28'0 0.0
2018-Feb-13 15:00N 60°09' E 026°28'0 0.0
2018-Feb-13 14:30N 60°09' E 026°28'0 0.0
2018-Feb-13 14:00N 60°09' E 026°28'0 0.0
2018-Feb-13 13:30N 60°09' E 026°28'0 0.0
2018-Feb-13 13:00N 60°09' E 026°28'0 0.0
2018-Feb-13 12:30N 60°09' E 026°28'0 0.0
2018-Feb-13 12:00N 60°09' E 026°28'0 0.0
2018-Feb-13 11:29N 60°09' E 026°28'0 0.0
2018-Feb-13 11:00N 60°09' E 026°28'2 2.9
2018-Feb-13 10:29N 60°09' E 026°25'4 7.8
2018-Feb-13 10:00N 60°07' E 026°19'4512.6
2018-Feb-13 06:29N 59°39' E 025°10'612.0
2018-Feb-13 06:00N 59°34' E 025°05'510.9
2018-Feb-13 05:30N 59°30' E 024°58'0 0.4
2018-Feb-13 05:00N 59°29' E 024°58'0 0.0
2018-Feb-13 04:30N 59°29' E 024°58'0 0.0
2018-Feb-13 03:59N 59°29' E 024°58'0 0.0
2018-Feb-13 03:30N 59°29' E 024°58'0 0.0
2018-Feb-13 03:00N 59°29' E 024°58'0 0.0
2018-Feb-13 02:30N 59°29' E 024°58'0 0.0
2018-Feb-13 02:00N 59°29' E 024°58'0 0.0
2018-Feb-13 01:30N 59°29' E 024°58'0 0.0
2018-Feb-13 01:00N 59°29' E 024°58'0 0.0
2018-Feb-13 00:30N 59°29' E 024°58'0 0.0
2018-Feb-13 00:00N 59°29' E 024°58'0 0.0
2018-Feb-12 23:30N 59°29' E 024°58'0 0.0
2018-Feb-12 23:00N 59°29' E 024°58'0 0.0
2018-Feb-12 22:30N 59°29' E 024°58'0 0.0
2018-Feb-12 21:58N 59°29' E 024°58'0 0.0
2018-Feb-12 21:29N 59°29' E 024°58'0 0.0
2018-Feb-12 20:58N 59°29' E 024°58'0 0.0
2018-Feb-12 20:28N 59°29' E 024°58'0 0.0
2018-Feb-12 19:58N 59°29' E 024°58'0 0.0
2018-Feb-12 19:29N 59°29' E 024°58'0 0.0
2018-Feb-12 18:59N 59°29' E 024°58'0 0.0
2018-Feb-12 18:29N 59°29' E 024°58'0 0.0
2018-Feb-12 17:59N 59°29' E 024°58'0 0.0
2018-Feb-12 17:29N 59°29' E 024°58'0 0.0
2018-Feb-12 16:59N 59°29' E 024°58'0 0.0
2018-Feb-12 16:29N 59°29' E 024°58'0 0.0
2018-Feb-12 15:59N 59°29' E 024°58'0 0.0
2018-Feb-12 15:28N 59°29' E 024°58'0 0.0
2018-Feb-12 14:58N 59°29' E 024°58'0 0.0
2018-Feb-12 14:28N 59°29' E 024°58'0 0.0
2018-Feb-12 13:58N 59°29' E 024°58'0 0.0
2018-Feb-12 13:28N 59°29' E 024°58'0 0.0
2018-Feb-12 12:58N 59°29' E 024°58'0 0.0
2018-Feb-12 12:28N 59°29' E 024°58'0 0.0
2018-Feb-12 11:58N 59°29' E 024°58'0 0.0
2018-Feb-12 11:28N 59°29' E 024°58'0 0.0
2018-Feb-12 10:58N 59°29' E 024°58'0 0.0
2018-Feb-12 10:28N 59°29' E 024°58'0 0.0
2018-Feb-12 09:58N 59°29' E 024°58'0 0.0
2018-Feb-12 09:25N 59°29' E 024°58'0 0.0
2018-Feb-12 08:58N 59°29' E 024°58'0 0.0
2018-Feb-12 08:28N 59°29' E 024°58'0 0.0
2018-Feb-12 07:58N 59°29' E 024°58'0 0.0
2018-Feb-12 07:28N 59°29' E 024°58'0 0.0
2018-Feb-12 06:58N 59°29' E 024°58'0 0.0
2018-Feb-12 06:28N 59°29' E 024°58'0 0.0
2018-Feb-12 05:58N 59°29' E 024°58'0 0.0
2018-Feb-12 05:28N 59°29' E 024°58'0 0.0
2018-Feb-12 04:58N 59°29' E 024°58'0 0.0
2018-Feb-12 04:28N 59°29' E 024°58'0 0.0
2018-Feb-12 03:58N 59°29' E 024°58'0 0.0
2018-Feb-12 03:28N 59°29' E 024°58'0 0.0
2018-Feb-12 02:58N 59°29' E 024°58'0 0.0
2018-Feb-12 02:28N 59°29' E 024°58'0 0.0
2018-Feb-12 01:58N 59°29' E 024°58'0 0.0
2018-Feb-12 01:28N 59°29' E 024°58'0 0.0
2018-Feb-12 00:58N 59°29' E 024°58'0 0.0
2018-Feb-12 00:30N 59°29' E 024°58'0 0.0
2018-Feb-12 00:00N 59°29' E 024°58'0 0.0
2018-Feb-11 23:30N 59°29' E 024°58'0 0.0
2018-Feb-11 23:00N 59°29' E 024°58'0 0.0
2018-Feb-11 22:30N 59°29' E 024°58'0 0.0
2018-Feb-11 22:00N 59°29' E 024°58'0 0.0
2018-Feb-11 21:30N 59°29' E 024°58'0 0.0
2018-Feb-11 21:00N 59°29' E 024°58'0 0.0
2018-Feb-11 20:30N 59°29' E 024°58'0 0.0
2018-Feb-11 20:00N 59°29' E 024°58'0 0.0
2018-Feb-11 19:30N 59°29' E 024°58'0 0.0
2018-Feb-11 19:00N 59°29' E 024°58'0 0.0
2018-Feb-11 18:30N 59°29' E 024°58'0 0.0
2018-Feb-11 18:00N 59°29' E 024°58'0 0.0
2018-Feb-11 17:30N 59°29' E 024°58'0 0.0
2018-Feb-11 17:00N 59°29' E 024°58'0 0.0
2018-Feb-11 16:30N 59°29' E 024°58'0 0.0
2018-Feb-11 15:57N 59°29' E 024°58'0 0.0
2018-Feb-11 15:29N 59°29' E 024°58'0 0.0
2018-Feb-11 14:59N 59°29' E 024°58'0 0.0
2018-Feb-11 14:29N 59°29' E 024°58'0 0.0
2018-Feb-11 13:59N 59°29' E 024°58'0 0.0
2018-Feb-11 13:29N 59°29' E 024°58'0 0.0
2018-Feb-11 12:59N 59°29' E 024°58'0 0.0
2018-Feb-11 12:29N 59°29' E 024°58'0 0.0
2018-Feb-11 11:59N 59°29' E 024°58'0 0.0
2018-Feb-11 11:29N 59°29' E 024°58'0 0.0
2018-Feb-11 10:59N 59°29' E 024°58'0 0.0
2018-Feb-11 10:29N 59°29' E 024°58'0 0.0
2018-Feb-11 09:59N 59°29' E 024°58'0 0.0
2018-Feb-11 09:26N 59°29' E 024°58'0 0.0
2018-Feb-11 08:59N 59°29' E 024°58'0 0.0
2018-Feb-11 08:27N 59°29' E 024°58'0 0.0
2018-Feb-11 07:56N 59°29' E 024°58'0 0.0
2018-Feb-11 07:29N 59°29' E 024°58'0 0.0
2018-Feb-11 06:59N 59°29' E 024°58'0 0.0
2018-Feb-11 06:29N 59°29' E 024°58'0 0.0
2018-Feb-11 05:59N 59°29' E 024°58'0 0.0
2018-Feb-11 05:30N 59°29' E 024°58'0 0.0
2018-Feb-11 04:59N 59°29' E 024°58'0 0.0
2018-Feb-11 04:29N 59°29' E 024°58'0 0.0
2018-Feb-11 03:59N 59°29' E 024°58'0 0.0
2018-Feb-11 03:29N 59°29' E 024°58'0 0.0
2018-Feb-11 02:59N 59°29' E 024°58'0 0.0
2018-Feb-11 02:29N 59°29' E 024°58'0 0.0
2018-Feb-11 01:59N 59°29' E 024°58'0 0.0
2018-Feb-11 01:29N 59°29' E 024°58'0 0.0
2018-Feb-11 00:56N 59°29' E 024°58'0 0.0
2018-Feb-11 00:29N 59°29' E 024°58'0 0.0
2018-Feb-10 23:59N 59°29' E 024°58'0 0.0
2018-Feb-10 23:29N 59°29' E 024°58'0 0.0
2018-Feb-10 22:59N 59°29' E 024°58'0 0.0
2018-Feb-10 22:29N 59°29' E 024°58'0 0.0
2018-Feb-10 21:59N 59°29' E 024°58'0 0.0
2018-Feb-10 21:29N 59°29' E 024°58'0 0.0
2018-Feb-10 20:59N 59°29' E 024°58'0 0.0
2018-Feb-10 20:29N 59°29' E 024°58'0 0.0
2018-Feb-10 19:59N 59°29' E 024°58'0 0.0
2018-Feb-10 19:29N 59°29' E 024°58'0 0.0
2018-Feb-10 18:59N 59°29' E 024°58'0 0.0
2018-Feb-10 18:29N 59°29' E 024°58'0 0.0
2018-Feb-10 17:59N 59°29' E 024°58'0 0.0
2018-Feb-10 17:29N 59°29' E 024°58'0 0.0
2018-Feb-10 16:59N 59°29' E 024°58'0 0.0
2018-Feb-10 16:26N 59°29' E 024°58'0 0.0
2018-Feb-10 15:58N 59°29' E 024°58'0 0.0
2018-Feb-10 15:28N 59°29' E 024°58'0 0.0
2018-Feb-10 14:58N 59°29' E 024°58'0 0.0
2018-Feb-10 14:28N 59°29' E 024°58'0 0.0
2018-Feb-10 13:58N 59°29' E 024°58'0 0.0
2018-Feb-10 13:28N 59°29' E 024°58'0 0.0
2018-Feb-10 13:00N 59°29' E 024°58'0 0.0
2018-Feb-10 12:28N 59°29' E 024°58'0 0.0
2018-Feb-10 11:58N 59°29' E 024°58'0 0.0
2018-Feb-10 11:28N 59°29' E 024°58'0 0.0
2018-Feb-10 10:58N 59°29' E 024°58'0 0.0
2018-Feb-10 10:28N 59°29' E 024°58'0 0.0
2018-Feb-10 09:59N 59°29' E 024°58'0 0.0
2018-Feb-10 09:28N 59°29' E 024°58'0 0.0
2018-Feb-10 08:58N 59°29' E 024°58'0 0.0
2018-Feb-10 08:28N 59°29' E 024°58'0 0.0
2018-Feb-10 07:58N 59°29' E 024°58'0 0.0
2018-Feb-10 07:28N 59°29' E 024°58'0 0.0
2018-Feb-10 06:58N 59°29' E 024°58'0 0.0
2018-Feb-10 06:28N 59°29' E 024°58'0 0.0
2018-Feb-10 05:59N 59°29' E 024°58'0 0.0
2018-Feb-10 05:29N 59°29' E 024°58'0 0.0
2018-Feb-10 04:58N 59°29' E 024°58'0 0.0
2018-Feb-10 04:29N 59°29' E 024°58'0 0.0
2018-Feb-10 03:59N 59°29' E 024°58'0 0.0
2018-Feb-10 03:28N 59°29' E 024°58'  

Dump ship's entire track history